Station History

Weather Underground - logo

Station Historical Data
Daily Summary for August 19, 2017 Units:  English    Metric   Both
« Previous Day
Next Day »
Daily Weekly Monthly Yearly Custom
  High: Low: Average:
Temperature: TemperatureF °F 70.2 °F 84.7 °F
Dew Point: DewpointF °F 63.8 °F 66.4 °F
Humidity: Humidity % 33 % 57 %
Wind Speed: WindSpeedMPH mph 0.0 mph 1.2 mph
Wind Gust: WindSpeedGustMPH mph - -
Wind:- - SW
Pressure: PressureIn in 29.67 in -
Precipitation: 0.00 in    
Historical Graphs
 
 
Tabular Data for August 19, 2017
Time Temperature Dew Point Pressure Wind Wind Speed Wind Gust Humidity Rainfall Rate (Hourly)
TemperatureF °F DewpointF °F PressureIn in Calm     Humidity % HourlyPrecipIn in
00:01 76.5 °F 68.0 °F 29.82 in Calm     75 % 0.00 in
00:06 76.2 °F 67.7 °F 29.82 in Calm     75 % 0.00 in
00:11 76.1 °F 67.2 °F 29.82 in Calm     74 % 0.00 in
00:16 76.1 °F 66.8 °F 29.82 in Calm     73 % 0.00 in
00:21 76.2 °F 66.9 °F 29.82 in Calm     73 % 0.00 in
00:26 76.1 °F 66.8 °F 29.82 in Calm     73 % 0.00 in
00:31 76.1 °F 66.4 °F 29.82 in Calm     72 % 0.00 in
00:36 76.0 °F 66.3 °F 29.82 in Calm     72 % 0.00 in
00:41 75.9 °F 65.8 °F 29.82 in Calm     71 % 0.00 in
00:46 75.7 °F 66.0 °F 29.82 in Calm     72 % 0.00 in
00:51 75.6 °F 66.3 °F 29.82 in Calm     73 % 0.00 in
00:56 75.5 °F 66.2 °F 29.82 in Calm     73 % 0.00 in
01:01 75.4 °F 66.5 °F 29.82 in Calm     74 % 0.00 in
01:06 75.4 °F 66.5 °F 29.82 in Calm     74 % 0.00 in
01:11 75.2 °F 66.7 °F 29.82 in Calm     75 % 0.00 in
01:16 75.1 °F 66.2 °F 29.82 in Calm     74 % 0.00 in
01:21 75.1 °F 65.9 °F 29.81 in Calm     73 % 0.00 in
01:26 75.2 °F 65.9 °F 29.81 in Calm     73 % 0.00 in
01:31 75.3 °F 65.6 °F 29.81 in Calm     72 % 0.00 in
01:36 75.3 °F 65.6 °F 29.81 in Calm     72 % 0.00 in
01:41 75.3 °F 66.0 °F 29.81 in Calm     73 % 0.00 in
01:42 75.3 °F 66.0 °F 29.81 in Calm     73 % 0.00 in
01:47 75.2 °F 65.9 °F 29.81 in Calm     73 % 0.00 in
01:52 75.1 °F 65.9 °F 29.81 in Calm     73 % 0.00 in
01:57 75.0 °F 65.8 °F 29.80 in Calm     73 % 0.00 in
02:02 75.0 °F 66.5 °F 29.80 in Calm     75 % 0.00 in
02:05 74.9 °F 66.1 °F 29.80 in Calm     74 % 0.00 in
02:10 74.8 °F 65.6 °F 29.80 in Calm     73 % 0.00 in
02:15 74.8 °F 66.3 °F 29.80 in Calm     75 % 0.00 in
02:20 74.7 °F 65.5 °F 29.80 in Calm     73 % 0.00 in
02:25 74.9 °F 64.9 °F 29.80 in Calm     71 % 0.00 in
02:30 75.3 °F 65.2 °F 29.80 in Calm     71 % 0.00 in
02:35 75.4 °F 65.3 °F 29.80 in Calm     71 % 0.00 in
02:40 75.3 °F 66.0 °F 29.80 in Calm     73 % 0.00 in
02:45 75.0 °F 65.8 °F 29.80 in Calm     73 % 0.00 in
02:50 74.9 °F 66.4 °F 29.80 in Calm     75 % 0.00 in
02:55 74.9 °F 64.9 °F 29.80 in Calm     71 % 0.00 in
03:00 75.3 °F 64.8 °F 29.80 in Calm     70 % 0.00 in
03:05 75.3 °F 65.2 °F 29.80 in Calm     71 % 0.00 in
03:10 75.1 °F 65.5 °F 29.79 in Calm     72 % 0.00 in
03:15 74.9 °F 65.3 °F 29.79 in Calm     72 % 0.00 in
03:20 74.9 °F 66.4 °F 29.79 in Calm     75 % 0.00 in
03:25 74.3 °F 66.2 °F 29.79 in Calm     76 % 0.00 in
03:30 73.9 °F 66.6 °F 29.79 in Calm     78 % 0.00 in
03:35 73.6 °F 66.7 °F 29.79 in Calm     79 % 0.00 in
03:40 73.4 °F 66.5 °F 29.79 in Calm     79 % 0.00 in
03:45 73.2 °F 66.3 °F 29.79 in Calm     79 % 0.00 in
03:50 72.9 °F 66.4 °F 29.79 in Calm     80 % 0.00 in
03:55 72.7 °F 66.2 °F 29.79 in Calm     80 % 0.00 in
04:00 72.6 °F 65.7 °F 29.79 in Calm     79 % 0.00 in
04:05 72.7 °F 66.2 °F 29.79 in Calm     80 % 0.00 in
04:10 72.6 °F 66.4 °F 29.80 in Calm     81 % 0.00 in
04:15 72.3 °F 66.1 °F 29.79 in Calm     81 % 0.00 in
04:20 72.1 °F 66.3 °F 29.79 in Calm     82 % 0.00 in
04:25 71.9 °F 65.8 °F 29.79 in Calm     81 % 0.00 in
04:30 72.2 °F 65.7 °F 29.79 in Calm     80 % 0.00 in
04:35 72.0 °F 65.5 °F 29.80 in Calm     80 % 0.00 in
04:40 71.8 °F 65.3 °F 29.80 in Calm     80 % 0.00 in
04:45 71.6 °F 65.1 °F 29.79 in Calm     80 % 0.00 in
04:51 71.6 °F 65.1 °F 29.79 in Calm     80 % 0.00 in
04:56 71.6 °F 65.1 °F 29.79 in SE 1.2 mph   80 % 0.00 in
05:01 71.7 °F 64.8 °F 29.79 in Calm     79 % 0.00 in
05:06 71.8 °F 64.9 °F 29.79 in Calm     79 % 0.00 in
05:11 71.7 °F 64.8 °F 29.80 in Calm     79 % 0.00 in
05:16 71.4 °F 64.5 °F 29.79 in Calm     79 % 0.00 in
05:21 71.3 °F 64.4 °F 29.80 in Calm     79 % 0.00 in
05:26 71.3 °F 64.4 °F 29.80 in Calm     79 % 0.00 in
05:31 71.2 °F 64.4 °F 29.80 in Calm     79 % 0.00 in
05:36 71.2 °F 64.7 °F 29.80 in Calm     80 % 0.00 in
05:41 71.1 °F 65.0 °F 29.80 in Calm     81 % 0.00 in
05:46 70.7 °F 64.9 °F 29.80 in Calm     82 % 0.00 in
05:51 70.5 °F 64.7 °F 29.80 in Calm     82 % 0.00 in
05:56 70.5 °F 64.4 °F 29.80 in Calm     81 % 0.00 in
06:01 70.4 °F 64.6 °F 29.80 in Calm     82 % 0.00 in
06:06 70.3 °F 64.5 °F 29.80 in Calm     82 % 0.00 in
06:11 70.2 °F 64.1 °F 29.80 in Calm     81 % 0.00 in
06:16 70.3 °F 64.2 °F 29.80 in Calm     81 % 0.00 in
06:21 70.5 °F 64.0 °F 29.80 in Calm     80 % 0.00 in
06:26 70.6 °F 64.1 °F 29.80 in SE 1.2 mph   80 % 0.00 in
06:31 70.6 °F 64.1 °F 29.80 in Calm     80 % 0.00 in
06:36 70.5 °F 64.0 °F 29.81 in Calm     80 % 0.00 in
06:41 70.3 °F 63.8 °F 29.81 in Calm     80 % 0.00 in
06:46 70.3 °F 63.8 °F 29.81 in Calm     80 % 0.00 in
06:51 70.3 °F 63.8 °F 29.81 in Calm     80 % 0.00 in
06:56 70.6 °F 64.1 °F 29.81 in Calm     80 % 0.00 in
07:01 70.9 °F 64.1 °F 29.81 in SE 1.2 mph   79 % 0.00 in
07:06 71.2 °F 64.4 °F 29.81 in Calm     79 % 0.00 in
07:11 71.7 °F 64.5 °F 29.81 in ESE 1.2 mph   78 % 0.00 in
07:16 72.0 °F 64.8 °F 29.81 in SE 1.2 mph 1.2 mph 78 % 0.00 in
07:21 72.2 °F 65.0 °F 29.81 in SE 1.2 mph 1.2 mph 78 % 0.00 in
07:26 72.5 °F 65.6 °F 29.81 in SE 1.2 mph   79 % 0.00 in
07:31 72.8 °F 65.5 °F 29.82 in Calm     78 % 0.00 in
07:36 73.5 °F 65.5 °F 29.82 in Calm     76 % 0.00 in
07:41 74.4 °F 66.0 °F 29.82 in SE 1.2 mph   75 % 0.00 in
07:46 75.6 °F 65.9 °F 29.83 in SSE 1.2 mph 1.2 mph 72 % 0.00 in
07:51 76.5 °F 66.4 °F 29.83 in Calm     71 % 0.00 in
07:56 77.4 °F 66.4 °F 29.82 in Calm     69 % 0.00 in
07:57 77.6 °F 66.6 °F 29.82 in Calm     69 % 0.00 in
08:02 78.1 °F 66.2 °F 29.83 in SSE 2.3 mph 2.3 mph 67 % 0.00 in
08:07 78.5 °F 66.2 °F 29.83 in SSW 2.3 mph 2.3 mph 66 % 0.00 in
08:12 78.6 °F 65.4 °F 29.83 in South 3.5 mph 3.5 mph 64 % 0.00 in
08:17 78.8 °F 65.1 °F 29.83 in ENE 2.3 mph 2.3 mph 63 % 0.00 in
08:22 79.1 °F 65.4 °F 29.83 in SE 1.2 mph 1.2 mph 63 % 0.00 in
08:27 79.2 °F 65.5 °F 29.83 in SSE 3.5 mph 3.5 mph 63 % 0.00 in
08:32 79.6 °F 65.9 °F 29.83 in SSE 2.3 mph 2.3 mph 63 % 0.00 in
08:37 80.2 °F 66.0 °F 29.83 in SSE 2.3 mph 2.3 mph 62 % 0.00 in
08:42 80.6 °F 65.9 °F 29.83 in SSE 1.2 mph 1.2 mph 61 % 0.00 in
08:47 81.0 °F 65.8 °F 29.83 in SE 3.5 mph 3.5 mph 60 % 0.00 in
08:52 81.0 °F 65.8 °F 29.83 in SE 2.3 mph 2.3 mph 60 % 0.00 in
08:57 81.7 °F 66.9 °F 29.83 in East 1.2 mph 1.2 mph 61 % 0.00 in
09:02 82.3 °F 66.0 °F 29.83 in SSE 2.3 mph 2.3 mph 58 % 0.00 in
09:07 82.5 °F 65.7 °F 29.83 in SSE 3.5 mph 3.5 mph 57 % 0.00 in
09:12 82.7 °F 66.4 °F 29.83 in ESE 3.5 mph 3.5 mph 58 % 0.00 in
09:17 82.6 °F 66.3 °F 29.83 in SSE 2.3 mph 2.3 mph 58 % 0.00 in
09:22 83.0 °F 66.7 °F 29.83 in SE 2.3 mph 2.3 mph 58 % 0.00 in
09:27 83.6 °F 66.8 °F 29.83 in ESE 3.5 mph 3.5 mph 57 % 0.00 in
09:32 84.0 °F 67.1 °F 29.83 in SW 3.5 mph 3.5 mph 57 % 0.00 in
09:37 84.5 °F 67.6 °F 29.83 in SSE 2.0 mph 2.0 mph 57 % 0.00 in
09:42 84.9 °F 66.9 °F 29.83 in ESE 2.3 mph 2.3 mph 55 % 0.00 in
09:47 85.3 °F 67.3 °F 29.83 in SSE 3.5 mph 3.5 mph 55 % 0.00 in
09:52 85.6 °F 67.0 °F 29.83 in South 1.2 mph 1.2 mph 54 % 0.00 in
09:57 86.0 °F 67.4 °F 29.83 in WSW 2.3 mph   54 % 0.00 in
10:02 86.5 °F 67.9 °F 29.83 in SE 1.2 mph 1.2 mph 54 % 0.00 in
10:07 86.6 °F 68.0 °F 29.83 in SE 3.5 mph 3.5 mph 54 % 0.00 in
10:12 87.3 °F 68.1 °F 29.83 in NNW 1.2 mph 1.2 mph 53 % 0.00 in
10:18 87.5 °F 68.8 °F 29.82 in SSE 3.0 mph 3.0 mph 54 % 0.00 in
10:23 87.9 °F 67.5 °F 29.82 in South 2.3 mph 2.3 mph 51 % 0.00 in
10:28 88.2 °F 68.4 °F 29.82 in ENE 1.2 mph 1.2 mph 52 % 0.00 in
10:32 88.4 °F 68.5 °F 29.82 in South 2.3 mph 2.3 mph 52 % 0.00 in
10:37 88.8 °F 68.3 °F 29.82 in SSW 2.3 mph 2.3 mph 51 % 0.00 in
10:43 89.0 °F 67.9 °F 29.82 in West 3.5 mph 3.5 mph 50 % 0.00 in
10:48 88.9 °F 69.0 °F 29.82 in WSW 2.3 mph 2.3 mph 52 % 0.00 in
10:53 89.5 °F 69.0 °F 29.82 in North 2.3 mph 2.3 mph 51 % 0.00 in
10:58 89.9 °F 68.2 °F 29.81 in WNW 1.2 mph 1.2 mph 49 % 0.00 in
11:03 90.4 °F 67.4 °F 29.81 in SE 2.3 mph 2.3 mph 47 % 0.00 in
11:08 90.9 °F 69.1 °F 29.81 in South 2.0 mph 2.0 mph 49 % 0.00 in
11:13 91.5 °F 69.0 °F 29.81 in ESE 1.2 mph 1.2 mph 48 % 0.00 in
11:18 91.8 °F 69.3 °F 29.81 in NW 1.2 mph 1.2 mph 48 % 0.00 in
11:23 92.2 °F 69.1 °F 29.81 in SSE 2.3 mph 2.3 mph 47 % 0.00 in
11:28 92.8 °F 69.0 °F 29.80 in WNW 2.3 mph 2.3 mph 46 % 0.00 in
11:33 92.5 °F 68.7 °F 29.80 in NW 1.2 mph 1.2 mph 46 % 0.00 in
11:38 92.3 °F 68.5 °F 29.80 in NW 2.3 mph 2.3 mph 46 % 0.00 in
11:43 92.1 °F 67.7 °F 29.80 in NW 2.3 mph 2.3 mph 45 % 0.00 in
11:48 92.0 °F 69.5 °F 29.80 in NE 2.3 mph 2.3 mph 48 % 0.00 in
11:53 92.6 °F 68.2 °F 29.80 in NNE 1.2 mph 1.2 mph 45 % 0.00 in
11:58 93.2 °F 68.7 °F 29.79 in SSW 1.2 mph   45 % 0.00 in
12:03 93.8 °F 69.9 °F 29.79 in SSE 2.3 mph 2.3 mph 46 % 0.00 in
12:08 94.0 °F 68.8 °F 29.79 in Calm     44 % 0.00 in
12:13 94.4 °F 69.8 °F 29.79 in SSE 3.5 mph 3.5 mph 45 % 0.00 in
12:14 94.7 °F 69.4 °F 29.79 in SSE 3.5 mph 3.5 mph 44 % 0.00 in
12:19 94.8 °F 68.8 °F 29.79 in South 3.5 mph 3.5 mph 43 % 0.00 in
12:24 95.1 °F 69.1 °F 29.79 in NNE 2.3 mph 2.3 mph 43 % 0.00 in
12:29 95.2 °F 67.8 °F 29.78 in SE 2.3 mph 2.3 mph 41 % 0.00 in
12:34 95.1 °F 68.4 °F 29.78 in NNW 1.2 mph 1.2 mph 42 % 0.00 in
12:39 95.5 °F 67.3 °F 29.78 in WNW 2.3 mph 2.3 mph 40 % 0.00 in
12:44 95.4 °F 69.4 °F 29.78 in ESE 1.2 mph 1.2 mph 43 % 0.00 in
12:49 94.9 °F 66.8 °F 29.78 in NW 1.2 mph   40 % 0.00 in
12:54 95.0 °F 68.3 °F 29.78 in Calm   0.2 mph 42 % 0.00 in
12:59 95.4 °F 67.2 °F 29.77 in SE 3.5 mph 3.5 mph 40 % 0.00 in
13:04 95.7 °F 66.8 °F 29.77 in East 2.3 mph 2.3 mph 39 % 0.00 in
13:09 95.9 °F 69.1 °F 29.77 in SSW 3.5 mph 3.5 mph 42 % 0.00 in
13:14 96.3 °F 68.1 °F 29.77 in WSW 2.3 mph 2.3 mph 40 % 0.00 in
13:19 96.5 °F 68.2 °F 29.77 in North 1.2 mph 1.2 mph 40 % 0.00 in
13:24 96.7 °F 67.7 °F 29.76 in SE 1.2 mph 1.2 mph 39 % 0.00 in
13:29 97.0 °F 67.9 °F 29.76 in NNW 2.3 mph 2.3 mph 39 % 0.00 in
13:34 97.5 °F 69.8 °F 29.76 in West 2.0 mph 2.0 mph 41 % 0.00 in
13:39 97.6 °F 68.5 °F 29.76 in Calm     39 % 0.00 in
13:44 98.1 °F 66.6 °F 29.76 in NW 2.3 mph 2.3 mph 36 % 0.00 in
13:49 98.2 °F 67.5 °F 29.75 in WNW 2.3 mph 2.3 mph 37 % 0.00 in
13:54 97.5 °F 65.2 °F 29.75 in NW 4.6 mph 4.6 mph 35 % 0.00 in
13:56 97.2 °F 66.6 °F 29.75 in WNW 2.3 mph 2.3 mph 37 % 0.00 in
14:01 97.0 °F 64.8 °F 29.75 in NW 3.5 mph 3.5 mph 35 % 0.00 in
14:06 97.3 °F 64.2 °F 29.75 in NW 2.3 mph 2.3 mph 34 % 0.00 in
14:11 97.5 °F 65.2 °F 29.75 in NE 2.3 mph 2.3 mph 35 % 0.00 in
14:16 97.8 °F 64.7 °F 29.74 in NW 2.3 mph 2.3 mph 34 % 0.00 in
14:21 97.4 °F 64.3 °F 29.74 in ESE 2.3 mph 2.3 mph 34 % 0.00 in
14:26 98.0 °F 66.5 °F 29.74 in NW 2.3 mph 2.3 mph 36 % 0.00 in
14:31 98.6 °F 67.0 °F 29.74 in NW 1.0 mph 1.0 mph 36 % 0.00 in
14:32 98.6 °F 66.2 °F 29.74 in WNW 1.2 mph 1.2 mph 35 % 0.00 in
14:37 98.9 °F 66.5 °F 29.73 in WNW 1.2 mph 1.2 mph 35 % 0.00 in
14:42 99.5 °F 67.8 °F 29.73 in Calm     36 % 0.00 in
14:47 99.7 °F 68.0 °F 29.73 in NW 2.3 mph 2.3 mph 36 % 0.00 in
14:52 99.7 °F 65.5 °F 29.73 in WNW 3.5 mph 3.5 mph 33 % 0.00 in
14:57 99.3 °F 66.8 °F 29.73 in West 2.3 mph 2.3 mph 35 % 0.00 in
15:02 99.3 °F 66.8 °F 29.72 in NW 2.3 mph 2.3 mph 35 % 0.00 in
15:07 99.4 °F 66.9 °F 29.72 in NW 2.3 mph 2.3 mph 35 % 0.00 in
15:12 99.3 °F 66.8 °F 29.72 in NW 3.5 mph 3.5 mph 35 % 0.00 in
15:17 99.3 °F 66.8 °F 29.72 in NW 1.2 mph 1.2 mph 35 % 0.00 in
15:22 99.0 °F 66.6 °F 29.71 in NW 2.3 mph 2.3 mph 35 % 0.00 in
15:27 99.2 °F 66.7 °F 29.71 in WSW 3.5 mph 3.5 mph 35 % 0.00 in
15:32 99.5 °F 67.8 °F 29.71 in South 3.5 mph 3.5 mph 36 % 0.00 in
15:37 99.6 °F 67.1 °F 29.71 in NNW 3.5 mph 3.5 mph 35 % 0.00 in
15:42 99.4 °F 66.1 °F 29.71 in WNW 3.5 mph 3.5 mph 34 % 0.00 in
15:47 99.4 °F 66.1 °F 29.70 in WNW 3.5 mph 3.5 mph 34 % 0.00 in
15:52 99.8 °F 67.3 °F 29.70 in ENE 2.3 mph 2.3 mph 35 % 0.00 in
15:57 99.8 °F 66.4 °F 29.70 in NW 3.5 mph 3.5 mph 34 % 0.00 in
16:02 99.7 °F 67.2 °F 29.70 in WNW 1.2 mph 1.2 mph 35 % 0.00 in
16:07 99.3 °F 66.8 °F 29.70 in NW 2.3 mph 2.3 mph 35 % 0.00 in
16:12 98.9 °F 65.6 °F 29.70 in North 3.0 mph 3.0 mph 34 % 0.00 in
16:17 98.7 °F 66.3 °F 29.70 in WNW 3.5 mph 3.5 mph 35 % 0.00 in
16:22 98.3 °F 65.9 °F 29.70 in NW 4.6 mph 4.6 mph 35 % 0.00 in
16:27 98.3 °F 65.1 °F 29.70 in NNW 4.0 mph 4.0 mph 34 % 0.00 in
16:32 98.4 °F 66.0 °F 29.69 in NNE 2.3 mph 2.3 mph 35 % 0.00 in
16:37 98.4 °F 65.2 °F 29.69 in NW 4.6 mph 4.6 mph 34 % 0.00 in
16:42 98.3 °F 65.1 °F 29.69 in NW 3.5 mph 3.5 mph 34 % 0.00 in
16:47 98.4 °F 65.2 °F 29.69 in NW 1.2 mph 1.4 mph 34 % 0.00 in
16:52 98.4 °F 65.2 °F 29.69 in WNW 3.5 mph 3.5 mph 34 % 0.00 in
16:57 98.2 °F 66.7 °F 29.69 in NW 3.5 mph 3.5 mph 36 % 0.00 in
17:02 98.1 °F 64.9 °F 29.69 in NW 3.5 mph 3.5 mph 34 % 0.00 in
17:07 98.1 °F 65.8 °F 29.68 in WNW 3.0 mph 3.0 mph 35 % 0.00 in
17:12 98.1 °F 67.4 °F 29.68 in NW 3.5 mph 3.5 mph 37 % 0.00 in
17:17 98.0 °F 64.9 °F 29.68 in NNW 5.0 mph 5.0 mph 34 % 0.00 in
17:22 98.0 °F 65.7 °F 29.68 in WNW 3.5 mph 3.5 mph 35 % 0.00 in
17:27 98.2 °F 65.9 °F 29.68 in NW 1.2 mph 1.4 mph 35 % 0.00 in
17:33 98.2 °F 66.7 °F 29.67 in NW 1.2 mph 1.2 mph 36 % 0.00 in
17:38 98.0 °F 65.7 °F 29.68 in WNW 2.3 mph 2.3 mph 35 % 0.00 in
17:43 98.0 °F 64.9 °F 29.68 in NW 3.5 mph 3.5 mph 34 % 0.00 in
17:48 98.0 °F 65.7 °F 29.68 in NNW 2.3 mph 2.3 mph 35 % 0.00 in
17:52 98.0 °F 64.9 °F 29.68 in NW 2.3 mph 2.3 mph 34 % 0.00 in
17:57 98.0 °F 65.7 °F 29.68 in NW 2.3 mph 2.3 mph 35 % 0.00 in
18:02 97.4 °F 65.2 °F 29.68 in WNW 3.5 mph 3.5 mph 35 % 0.00 in
18:07 96.7 °F 65.4 °F 29.68 in NW 1.2 mph   36 % 0.00 in
18:12 96.2 °F 64.9 °F 29.68 in NW 2.3 mph 2.3 mph 36 % 0.00 in
18:17 95.8 °F 66.1 °F 29.68 in NW 1.2 mph 1.2 mph 38 % 0.00 in
18:22 95.5 °F 66.6 °F 29.68 in NW 1.2 mph 1.2 mph 39 % 0.00 in
18:27 95.1 °F 66.2 °F 29.68 in WNW 2.0 mph 2.0 mph 39 % 0.00 in
18:32 94.7 °F 66.6 °F 29.68 in West 1.2 mph 1.2 mph 40 % 0.00 in
18:37 94.3 °F 66.3 °F 29.68 in WNW 1.2 mph   40 % 0.00 in
18:42 94.2 °F 66.9 °F 29.68 in WNW 1.2 mph 1.2 mph 41 % 0.00 in
18:47 94.0 °F 66.7 °F 29.68 in WNW 1.2 mph 1.2 mph 41 % 0.00 in
18:52 93.9 °F 66.6 °F 29.68 in WNW 1.2 mph 1.2 mph 41 % 0.00 in
18:57 93.7 °F 67.1 °F 29.68 in WNW 1.2 mph   42 % 0.00 in
19:02 93.5 °F 66.3 °F 29.68 in Calm     41 % 0.00 in
19:07 93.3 °F 66.8 °F 29.69 in Calm     42 % 0.00 in
19:12 93.1 °F 67.3 °F 29.69 in Calm     43 % 0.00 in
19:17 93.0 °F 66.5 °F 29.69 in Calm     42 % 0.00 in
19:22 92.8 °F 66.3 °F 29.69 in Calm     42 % 0.00 in
19:27 92.5 °F 66.7 °F 29.69 in Calm     43 % 0.00 in
19:32 92.2 °F 67.1 °F 29.69 in Calm     44 % 0.00 in
19:37 91.7 °F 68.0 °F 29.69 in Calm     46 % 0.00 in
19:42 90.9 °F 67.9 °F 29.69 in Calm     47 % 0.00 in
19:47 90.5 °F 66.9 °F 29.69 in Calm     46 % 0.00 in
19:52 90.0 °F 68.3 °F 29.69 in Calm     49 % 0.00 in
19:57 89.6 °F 68.5 °F 29.69 in Calm     50 % 0.00 in
20:02 89.1 °F 68.6 °F 29.69 in Calm     51 % 0.00 in
20:07 88.6 °F 69.8 °F 29.69 in Calm     54 % 0.00 in
20:13 88.1 °F 69.9 °F 29.69 in Calm     55 % 0.00 in
20:18 87.6 °F 70.0 °F 29.69 in Calm     56 % 0.00 in
20:21 87.4 °F 70.8 °F 29.69 in Calm     58 % 0.00 in
20:22 87.3 °F 71.7 °F 29.69 in Calm     60 % 0.00 in
20:27 86.9 °F 70.8 °F 29.70 in Calm     59 % 0.00 in
20:28 86.8 °F 71.2 °F 29.70 in Calm     60 % 0.00 in
20:33 86.3 °F 70.8 °F 29.70 in Calm     60 % 0.00 in
20:38 85.8 °F 70.8 °F 29.70 in Calm     61 % 0.00 in
20:43 85.6 °F 70.1 °F 29.70 in WNW 1.2 mph   60 % 0.00 in
20:48 85.4 °F 70.9 °F 29.70 in WNW 1.2 mph   62 % 0.00 in
20:53 85.2 °F 69.7 °F 29.71 in Calm     60 % 0.00 in
20:58 85.2 °F 69.7 °F 29.71 in Calm     60 % 0.00 in
21:03 85.1 °F 68.7 °F 29.71 in WNW 1.2 mph 1.2 mph 58 % 0.00 in
21:08 85.2 °F 68.8 °F 29.71 in Calm     58 % 0.00 in
21:13 85.4 °F 68.4 °F 29.72 in Calm     57 % 0.00 in
21:18 85.3 °F 68.8 °F 29.72 in Calm     58 % 0.00 in
21:23 85.1 °F 68.7 °F 29.72 in Calm     58 % 0.00 in
21:28 85.0 °F 68.1 °F 29.72 in Calm     57 % 0.00 in
21:33 84.9 °F 68.0 °F 29.72 in WNW 1.0 mph   57 % 0.00 in
21:38 85.2 °F 67.2 °F 29.72 in WNW 1.2 mph   55 % 0.00 in
21:43 85.7 °F 66.0 °F 29.72 in NW 2.3 mph 2.3 mph 52 % 0.00 in
21:48 85.8 °F 66.1 °F 29.72 in NW 1.2 mph   52 % 0.00 in
21:53 85.8 °F 66.1 °F 29.73 in NW 1.2 mph   52 % 0.00 in
21:58 85.8 °F 66.1 °F 29.73 in Calm     52 % 0.00 in
22:03 85.7 °F 66.0 °F 29.73 in Calm     52 % 0.00 in
22:08 85.7 °F 65.5 °F 29.73 in Calm     51 % 0.00 in
22:13 85.7 °F 65.5 °F 29.73 in NW 1.2 mph   51 % 0.00 in
22:18 85.7 °F 65.5 °F 29.73 in Calm     51 % 0.00 in
22:23 85.5 °F 65.9 °F 29.73 in Calm     52 % 0.00 in
22:28 85.0 °F 66.0 °F 29.73 in Calm     53 % 0.00 in
22:33 84.4 °F 66.5 °F 29.73 in Calm     55 % 0.00 in
22:38 83.6 °F 66.8 °F 29.74 in Calm     57 % 0.00 in
22:43 82.5 °F 66.7 °F 29.74 in SSE 2.3 mph 2.3 mph 59 % 0.00 in
22:48 81.5 °F 67.2 °F 29.74 in Calm     62 % 0.00 in
22:53 80.8 °F 67.0 °F 29.74 in Calm     63 % 0.00 in
22:58 80.4 °F 67.6 °F 29.74 in Calm     65 % 0.00 in
23:03 80.0 °F 68.1 °F 29.74 in Calm     67 % 0.00 in
23:08 79.5 °F 68.4 °F 29.74 in Calm     69 % 0.00 in
23:14 79.2 °F 68.1 °F 29.74 in Calm   0.1 mph 69 % 0.00 in
23:19 78.9 °F 68.3 °F 29.74 in South 2.3 mph 2.3 mph 70 % 0.00 in
23:24 78.7 °F 68.1 °F 29.75 in East 1.2 mph 1.2 mph 70 % 0.00 in
23:29 78.5 °F 67.9 °F 29.75 in ESE 1.2 mph 1.2 mph 70 % 0.00 in
23:34 78.4 °F 67.4 °F 29.75 in SE 1.2 mph   69 % 0.00 in
23:39 78.2 °F 66.8 °F 29.75 in Calm     68 % 0.00 in
23:44 78.2 °F 66.3 °F 29.75 in SE 1.2 mph 1.2 mph 67 % 0.00 in
23:49 78.0 °F 66.2 °F 29.75 in SE 1.2 mph 1.2 mph 67 % 0.00 in
23:54 77.8 °F 65.5 °F 29.75 in SE 1.2 mph   66 % 0.00 in
23:59 77.8 °F 65.1 °F 29.75 in SSE 2.3 mph 2.3 mph 65 % 0.00 in
Park Place, Exeter, Tulare County, California, USA
Compliments of Weather Underground - 2.75 mb